Portada
METAR-TAF:

METAR-TAF

Aeroports :

Horn Island, Austràlia

latitud: 10-35-11S, longitud: 142-07-24E, altitud: 13 m

Observació

L'informe es va fer fa 47 minuts, a les 16:30 UTC
Vent 10 kt del Sud/Sud-Est
Temperatura 26°C
Humitat 84%
Pressió 1008 hPa
Visibilitat 10 km o més
Cel cobert a una alçada de 6100 ft

METAR: YHID 081630Z AUTO 15010KT 9999 // OVC061 26/23 Q1008 RF00.0/000.0

Hora: 03:17 (17:17 UTC)

Pronòstic

L'informe es va fer fa 6 hores i 15 minuts, a les 11:02 UTC
Pronòstic vàlid del 08 a les 12 UTC al 09 a les 12 UTC
Vent 12 kt del Sud-Est
Visibilitat 10 km o més
Núvols disperses a una alçada de 1800 ft
A partir de les 09 a les 0000 UTC
Vent 18 kt del Est/Sud-Est
Visibilitat 10 km o més
Núvols disperses a una alçada de 2500 ft
A partir de les 09 a les 0900 UTC
Vent 16 kt del Sud-Est
Visibilitat 10 km o més
Núvols disperses a una alçada de 1500 ft

TAF: YHID 081102Z 0812/0912 14012KT 9999 SCT018 FM090000 12018KT 9999 SCT025 FM090900 13016KT 9999 SCT015

Observacions i pronòstics meteorològics de més de 4000 aeroports (METAR i TAF).

Les estacions disponibles són els punts grocs i vermells al mapa.

Posi el ratolí al punt desitjat per veure el nom de l'estació.

Feu clic per veure les observacions i els pronòstics meteorològics.

Per canviar el mapa: feu clic els botons verds amb una creu de color negre per apropar; al botó verd amb un guió per allunyar la imatge; o en les fletxes verdes per a mapes adjacents.


METAR-TAF: